createdAt,value
2018-07-25T00:02:00.986Z,21.60
2018-07-25T00:07:06.091Z,21.60
2018-07-25T00:12:09.180Z,21.50
2018-07-25T00:17:12.325Z,21.40
2018-07-25T00:22:16.514Z,21.40
2018-07-25T00:27:19.635Z,21.30
2018-07-25T00:32:23.271Z,21.30
2018-07-25T00:42:29.375Z,21.10
2018-07-25T00:47:33.962Z,21.10
2018-07-25T00:52:37.039Z,21.00
2018-07-25T00:57:40.355Z,21.00
2018-07-25T01:02:43.425Z,20.90
2018-07-25T01:07:46.741Z,20.80
2018-07-25T01:12:49.820Z,20.80
2018-07-25T01:17:52.897Z,20.80
2018-07-25T01:22:56.069Z,20.70
2018-07-25T01:27:59.239Z,20.70
2018-07-25T01:33:02.426Z,20.70
2018-07-25T01:38:05.566Z,20.70
2018-07-25T01:43:09.553Z,20.80
2018-07-25T01:48:12.588Z,20.70
2018-07-25T01:53:15.678Z,20.70
2018-07-25T01:58:18.768Z,20.80
2018-07-25T02:03:21.818Z,20.80
2018-07-25T02:08:24.883Z,20.90
2018-07-25T02:13:27.950Z,21.00
2018-07-25T02:18:31.123Z,21.00
2018-07-25T02:23:34.182Z,21.00
2018-07-25T02:28:37.236Z,21.00
2018-07-25T02:33:45.741Z,20.90
2018-07-25T02:38:49.878Z,20.90
2018-07-25T02:43:53.026Z,20.90
2018-07-25T02:48:56.089Z,20.90
2018-07-25T02:53:59.208Z,20.90
2018-07-25T02:59:03.177Z,20.90
2018-07-25T03:04:06.285Z,20.80
2018-07-25T03:09:10.145Z,20.80
2018-07-25T03:14:13.245Z,20.70
2018-07-25T03:19:16.580Z,20.70
2018-07-25T03:24:19.732Z,20.60
2018-07-25T03:29:22.864Z,20.60
2018-07-25T03:34:25.924Z,20.60
2018-07-25T03:39:28.990Z,20.60
2018-07-25T03:44:32.052Z,20.60
2018-07-25T03:49:35.121Z,20.70
2018-07-25T03:54:39.222Z,20.70
2018-07-25T03:59:42.610Z,20.70
2018-07-25T04:04:48.151Z,20.60
2018-07-25T04:09:51.294Z,20.60
2018-07-25T04:14:54.709Z,20.70
2018-07-25T04:19:57.831Z,20.90
2018-07-25T04:25:01.019Z,21.10
2018-07-25T04:30:05.274Z,21.30
2018-07-25T04:35:09.374Z,21.40
2018-07-25T04:40:12.516Z,21.60
2018-07-25T04:45:15.609Z,21.80
2018-07-25T04:50:18.823Z,22.00
2018-07-25T04:55:21.856Z,22.30
2018-07-25T05:05:27.868Z,22.80
2018-07-25T05:10:30.973Z,23.00
2018-07-25T05:15:34.109Z,23.20
2018-07-25T05:20:37.361Z,23.50
2018-07-25T05:25:40.427Z,23.60
2018-07-25T05:30:43.478Z,23.90
2018-07-25T05:35:46.546Z,24.10
2018-07-25T05:40:49.689Z,24.30
2018-07-25T05:45:52.766Z,24.50
2018-07-25T05:50:55.831Z,24.60
2018-07-25T05:55:58.906Z,24.80
2018-07-25T06:01:02.012Z,24.80
2018-07-25T06:06:05.282Z,24.90
2018-07-25T06:11:08.372Z,25.10
2018-07-25T06:16:11.564Z,25.70
2018-07-25T06:21:15.662Z,26.80
2018-07-25T06:26:18.795Z,28.10
2018-07-25T06:31:21.985Z,29.10
2018-07-25T06:36:26.187Z,29.70
2018-07-25T06:41:29.319Z,30.00
2018-07-25T06:46:32.465Z,30.60
2018-07-25T06:51:35.869Z,31.40
2018-07-25T06:56:38.994Z,31.10
2018-07-25T07:01:42.086Z,32.20
2018-07-25T07:06:45.279Z,32.00
2018-07-25T07:11:48.319Z,32.40
2018-07-25T07:16:51.389Z,32.90
2018-07-25T07:21:54.757Z,33.00
2018-07-25T07:37:05.510Z,32.80
2018-07-25T07:42:08.564Z,32.90
2018-07-25T07:47:13.061Z,33.10
2018-07-25T07:52:16.322Z,33.30
2018-07-25T07:57:19.410Z,33.30
2018-07-25T08:02:22.536Z,33.90
2018-07-25T08:07:25.632Z,34.60
2018-07-25T08:12:28.673Z,35.00
2018-07-25T08:17:31.853Z,35.00
2018-07-25T08:22:35.029Z,34.70
2018-07-25T08:27:38.300Z,34.30
2018-07-25T08:32:41.367Z,34.60
2018-07-25T08:37:44.468Z,33.90
2018-07-25T08:42:47.557Z,33.30
2018-07-25T08:47:50.673Z,33.20
2018-07-25T08:52:53.785Z,32.50
2018-07-25T08:57:56.915Z,32.20
2018-07-25T09:03:00.091Z,31.70
2018-07-25T09:08:03.136Z,31.50
2018-07-25T09:13:06.614Z,31.00
2018-07-25T09:18:09.729Z,31.00
2018-07-25T09:23:12.767Z,30.60
2018-07-25T09:28:15.851Z,30.40
2018-07-25T09:33:18.907Z,30.30
2018-07-25T09:38:21.985Z,30.50
2018-07-25T09:43:25.084Z,30.70
2018-07-25T09:53:31.126Z,31.00
2018-07-25T09:58:34.193Z,30.80
2018-07-25T10:03:37.287Z,30.60
2018-07-25T10:08:40.402Z,30.70
2018-07-25T10:13:43.436Z,30.60
2018-07-25T10:18:46.612Z,30.30
2018-07-25T10:23:49.677Z,30.10
2018-07-25T10:28:52.770Z,30.00
2018-07-25T10:33:55.864Z,30.10
2018-07-25T10:38:59.054Z,30.20
2018-07-25T10:44:02.155Z,30.20
2018-07-25T10:49:05.429Z,30.30
2018-07-25T10:54:08.495Z,30.40
2018-07-25T10:59:11.617Z,30.10
2018-07-25T11:04:14.676Z,30.20
2018-07-25T11:09:17.910Z,30.20
2018-07-25T11:14:21.008Z,30.40
2018-07-25T11:19:24.110Z,30.40
2018-07-25T11:24:27.198Z,30.30
2018-07-25T11:29:30.357Z,30.30
2018-07-25T11:34:33.466Z,30.30
2018-07-25T11:39:36.565Z,30.40
2018-07-25T11:44:39.771Z,30.60
2018-07-25T11:49:42.965Z,30.50
2018-07-25T11:54:46.273Z,30.60
2018-07-25T11:59:49.365Z,30.70
2018-07-25T12:04:52.447Z,30.30
2018-07-25T12:09:55.540Z,29.90
2018-07-25T12:14:58.616Z,30.00
2018-07-25T12:20:01.721Z,30.20
2018-07-25T12:25:05.781Z,30.40
2018-07-25T12:30:09.765Z,30.70
2018-07-25T12:35:12.828Z,30.50
2018-07-25T12:40:16.001Z,30.60
2018-07-25T12:45:19.125Z,30.40
2018-07-25T12:50:22.207Z,30.30
2018-07-25T12:55:25.346Z,30.30
2018-07-25T13:00:28.578Z,30.50
2018-07-25T13:05:31.652Z,30.60
2018-07-25T13:10:34.878Z,30.70
2018-07-25T13:15:38.003Z,30.70
2018-07-25T13:20:41.092Z,30.80
2018-07-25T13:25:44.268Z,30.80
2018-07-25T13:30:47.318Z,30.80
2018-07-25T13:35:50.383Z,30.50
2018-07-25T13:40:53.465Z,30.50
2018-07-25T13:45:56.532Z,30.70
2018-07-25T13:50:59.590Z,30.80
2018-07-25T13:56:02.730Z,30.80
2018-07-25T14:01:05.832Z,30.90
2018-07-25T14:06:08.944Z,30.90
2018-07-25T14:11:12.590Z,31.00
2018-07-25T14:16:15.663Z,31.00
2018-07-25T14:21:18.723Z,31.00
2018-07-25T14:26:21.834Z,30.90
2018-07-25T14:36:27.857Z,30.90
2018-07-25T14:41:30.943Z,31.00
2018-07-25T14:46:34.359Z,31.00
2018-07-25T14:51:37.528Z,31.00
2018-07-25T14:56:40.621Z,31.00
2018-07-25T15:01:43.675Z,31.10
2018-07-25T15:06:46.880Z,31.10
2018-07-25T15:11:49.983Z,31.20
2018-07-25T15:16:53.047Z,31.10
2018-07-25T15:21:56.232Z,31.00
2018-07-25T15:26:59.313Z,31.00
2018-07-25T15:32:02.422Z,31.00
2018-07-25T15:37:05.548Z,31.00
2018-07-25T15:42:08.635Z,31.00
2018-07-25T15:47:12.553Z,31.00
2018-07-25T15:52:15.612Z,31.00
2018-07-25T15:57:18.730Z,31.00
2018-07-25T16:02:21.800Z,30.80
2018-07-25T16:07:24.961Z,30.80
2018-07-25T16:12:28.182Z,30.80
2018-07-25T16:17:31.230Z,30.70
2018-07-25T16:22:34.327Z,30.50
2018-07-25T16:27:37.428Z,30.60
2018-07-25T16:32:40.576Z,30.60
2018-07-25T16:37:43.628Z,30.60
2018-07-25T16:42:46.756Z,30.50
2018-07-25T16:47:49.868Z,30.40
2018-07-25T16:52:53.597Z,30.30
2018-07-25T16:57:56.717Z,30.30
2018-07-25T17:09:07.791Z,30.30
2018-07-25T17:14:10.903Z,30.20
2018-07-25T17:19:15.190Z,30.10
2018-07-25T17:24:18.225Z,30.10
2018-07-25T17:34:24.217Z,30.00
2018-07-25T17:39:27.302Z,29.90
2018-07-25T17:44:30.356Z,29.90
2018-07-25T17:49:33.487Z,29.80
2018-07-25T17:54:37.592Z,29.60
2018-07-25T17:59:40.632Z,29.50
2018-07-25T18:04:43.708Z,29.40
2018-07-25T18:09:46.896Z,29.30
2018-07-25T18:14:49.924Z,29.20
2018-07-25T18:19:53.000Z,29.10
2018-07-25T18:24:56.111Z,29.10
2018-07-25T18:29:59.272Z,29.10
2018-07-25T18:35:02.354Z,29.00
2018-07-25T18:40:05.697Z,29.00
2018-07-25T18:45:08.758Z,28.90
2018-07-25T18:50:12.023Z,28.80
2018-07-25T18:55:15.205Z,28.70
2018-07-25T19:00:18.324Z,28.40
2018-07-25T19:05:25.655Z,28.30
2018-07-25T19:10:28.864Z,28.30
2018-07-25T19:15:33.236Z,28.20
2018-07-25T19:25:39.282Z,27.90
2018-07-25T19:30:42.494Z,27.80
2018-07-25T19:35:46.594Z,27.60
2018-07-25T19:40:49.653Z,27.50
2018-07-25T19:45:52.798Z,27.40
2018-07-25T19:50:55.938Z,27.20
2018-07-25T19:55:58.973Z,27.10
2018-07-25T20:01:02.065Z,27.10
2018-07-25T20:11:08.274Z,26.80
2018-07-25T20:16:11.356Z,26.80
2018-07-25T20:21:14.565Z,26.70
2018-07-25T20:26:17.650Z,26.70
2018-07-25T20:31:20.833Z,26.60
2018-07-25T20:36:23.803Z,26.50
2018-07-25T20:41:26.980Z,26.30
2018-07-25T20:46:30.025Z,26.30
2018-07-25T20:51:33.174Z,26.20
2018-07-25T20:56:36.333Z,26.20
2018-07-25T21:01:39.485Z,26.20
2018-07-25T21:06:42.536Z,26.10
2018-07-25T21:11:45.587Z,26.10
2018-07-25T21:16:48.733Z,26.00
2018-07-25T21:21:51.824Z,25.90
2018-07-25T21:26:54.852Z,25.80
2018-07-25T21:31:57.925Z,25.70
2018-07-25T21:37:01.035Z,25.60
2018-07-25T21:42:04.182Z,25.50
2018-07-25T21:47:07.276Z,25.40
2018-07-25T21:52:10.336Z,25.20
2018-07-25T21:57:13.410Z,25.00
2018-07-25T22:02:16.577Z,25.00
2018-07-25T22:07:19.647Z,24.80
2018-07-25T22:12:22.833Z,24.80
2018-07-25T22:17:26.073Z,24.70
2018-07-25T22:22:29.263Z,24.60
2018-07-25T22:27:32.443Z,24.50
2018-07-25T22:32:35.571Z,24.50
2018-07-25T22:37:38.686Z,24.30
2018-07-25T22:42:41.777Z,24.20
2018-07-25T22:47:44.833Z,24.10
2018-07-25T22:52:47.880Z,24.00
2018-07-25T23:02:53.835Z,23.90
2018-07-25T23:07:57.069Z,23.80
2018-07-25T23:13:00.125Z,23.80
2018-07-25T23:23:06.144Z,23.60
2018-07-25T23:28:09.316Z,23.60
2018-07-25T23:33:12.423Z,23.50
2018-07-25T23:38:15.501Z,23.40
2018-07-25T23:43:18.557Z,23.30
2018-07-25T23:48:22.717Z,23.20
2018-07-25T23:53:25.792Z,23.10
2018-07-25T23:58:28.842Z,23.00
